METAR Data
IDs: Format: Raw Decoded Include TAF

Data at: 0918 UTC 20 Sep 2018

PABR 200553Z 09007KT 7SM CLR M01/M01 A3012
PABR 200435Z 09008KT 6SM BR CLR M01/M01 A3013
PABR 200353Z 09007KT 8SM CLR 01/M01 A3013
PABR 200253Z 10008KT 9SM CLR 02/00 A3014
PABR 192219Z 09013KT 10SM FEW006 02/00 A3016
PABR 192053Z 11011KT 10SM CLR 02/00 A3016 RMK SLP213 T00170000 58003 VIA AUTODIAL
PABR 192015Z 10011KT 10SM SCT005 01/00 A3016 RMK T00060000 VIA AUTODIAL
PABR 192014Z 10011KT 10SM SCT005 01/00 A3016 RMK AO2 T00060000
PABR 191953Z 11012KT 9SM OVC005 01/00 A3016 RMK SLP215 T00060000 VIA AUTODIAL
PABR 191853Z 12011KT 9SM BKN005 00/M01 A3017 RMK SLP219 T00001006 VIA AUTODIAL
PABR 191851Z 11012KT 9SM BKN005 00/M01 A3017 RMK VIA AUTODIAL
PABR 191822Z 11011KT 9SM FEW005 00/M01 A3017 RMK T00001006 $ VIA AUTODIAL
PABR 191753Z 11014KT 8SM CLR 00/M01 A3017 RMK SLP217 T00001006 10000 21011 58002 $ VIA AUTODIAL
PABR 191653Z 10011KT 8SM CLR M01/M01 A3017 RMK SLP217 T10111011 $ VIA AUTODIAL
PABR 191553Z 11010KT 7SM CLR M01/M02 A3017 RMK SLP219 T10111017 $ VIA AUTODIAL
PABR 191453Z 11010KT 9SM CLR M01/M02 A3017 RMK SLP218 T10111017 56001 VIA AUTODIAL
PABR 191353Z 11010KT 9SM CLR M01/M02 A3017 RMK SLP218 T10111017 VIA AUTODIAL
PABR 191253Z AUTO 10011KT 9SM CLR M01/M01 A3017 RMK SLP217 T10111011 TSNO VIA AUTODIAL
PABR 191153Z AUTO 10011KT 8SM CLR M01/M01 A3018 RMK SLP219 7//// T10111011 11006 21011 56001 TSNO VIA AUTODIAL
PABR 191053Z AUTO 10011KT 8SM CLR M01/M01 A3018 RMK SLP220 T10111011 TSNO VIA AUTODIAL
PABR 190953Z AUTO 11011KT 8SM CLR M01/M01 A3018 RMK SLP219 T10111011 TSNO VIA AUTODIAL
PABR 190853Z AUTO 10011KT 8SM CLR M01/M01 A3018 RMK SLP221 T10111011 400111011 50002 TSNO VIA AUTODIAL
PABR 190753Z AUTO 11010KT 8SM CLR M01/M01 A3019 RMK SLP223 T10061011 TSNO VIA AUTODIAL
PABR 190653Z AUTO 11012KT 9SM CLR M01/M01 A3018 RMK SLP220 T10061011 TSNO VIA AUTODIAL
PABR 190553Z 10014KT 9SM CLR M01/M01 A3018 RMK SLP219 T10061011 10011 21006 50000 VIA AUTODIAL
PABR 190532Z 10014KT 9SM SCT008 M01/M01 A3018
PABR 190453Z 11014KT 8SM OVC008 00/M01 A3018 RMK SLP220 T00001011 VIA AUTODIAL
PABR 190353Z 11015KT 9SM OVC008 00/M01 A3017 RMK SLP219 T00001006 VIA AUTODIAL
PABR 190253Z 11018G23KT 10SM OVC008 00/M01 A3017 RMK PK WND 11026/0205 SLP219 T00001011 57003 VIA AUTODIAL
PABR 190153Z 11018G25KT 9SM OVC008 00/M01 A3018 RMK SLP220 T00001011 CHINO NE $ VIA AUTODIAL
PABR 190053Z 10018KT 10SM OVC008 01/M01 A3018 RMK SLP221 T00061011 CHINO NE VISNO NE $ VIA AUTODIAL
PABR 182353Z 12017G26KT 10SM OVC008 01/M01 A3018 RMK PK WND 12026/2346 SLP222 6//// T00061011 10006 21006 56001 CHINO NE VISNO NE $ VIA AUTODIAL
PABR 182253Z 11017KT 9SM OVC008 00/M01 A3018 RMK PK WND 10028/2201 SLP222 T00001011 CHINO NE VISNO NE $ VIA AUTODIAL
PABR 182153Z 11020G26KT 9SM OVC008 00/M01 A3019 RMK PK WND 12028/2119 SLP222 T00001011 VIA AUTODIAL